createdAt,value
2022-08-17T00:03:05.890Z,98620.53
2022-08-17T00:07:07.470Z,98631.50
2022-08-17T00:11:12.553Z,98627.94
2022-08-17T00:15:15.404Z,98618.13
2022-08-17T00:19:23.279Z,98623.13
2022-08-17T00:23:25.701Z,98628.16
2022-08-17T00:27:27.109Z,98622.75
2022-08-17T00:31:28.746Z,98615.56
2022-08-17T00:35:30.183Z,98615.09
2022-08-17T00:39:31.708Z,98610.63
2022-08-17T00:43:46.433Z,98622.84
2022-08-17T00:47:49.433Z,98628.16
2022-08-17T00:51:57.395Z,98631.91
2022-08-17T00:56:01.947Z,98624.03
2022-08-17T01:00:12.765Z,98627.31
2022-08-17T01:04:16.082Z,98622.06
2022-08-17T01:08:22.138Z,98615.94
2022-08-17T01:12:23.614Z,98622.97
2022-08-17T01:16:28.823Z,98623.06
2022-08-17T01:20:30.463Z,98617.28
2022-08-17T01:24:52.099Z,98618.28
2022-08-17T01:28:55.785Z,98622.84
2022-08-17T01:32:57.874Z,98629.94
2022-08-17T01:37:00.419Z,98623.16
2022-08-17T01:41:06.885Z,98632.97
2022-08-17T01:45:14.756Z,98634.03
2022-08-17T01:49:16.329Z,98640.25
2022-08-17T01:53:34.157Z,98692.78
2022-08-17T01:57:36.159Z,98705.38
2022-08-17T02:01:38.019Z,98696.06
2022-08-17T02:05:40.161Z,98700.84
2022-08-17T02:09:42.196Z,98700.25
2022-08-17T02:13:45.613Z,98702.34
2022-08-17T02:17:47.803Z,98694.91
2022-08-17T02:21:56.326Z,98703.97
2022-08-17T02:25:59.696Z,98716.72
2022-08-17T02:30:01.131Z,98712.31
2022-08-17T02:34:04.055Z,98711.94
2022-08-17T02:38:06.908Z,98710.19
2022-08-17T02:42:08.526Z,98710.03
2022-08-17T02:46:09.897Z,98699.47
2022-08-17T02:50:15.029Z,98690.78
2022-08-17T02:54:41.387Z,98703.00
2022-08-17T02:58:38.821Z,98677.56
2022-08-17T03:02:42.112Z,98653.59
2022-08-17T03:06:43.813Z,98633.16
2022-08-17T03:10:46.209Z,98607.59
2022-08-17T03:14:47.621Z,98590.72
2022-08-17T03:18:49.194Z,98590.81
2022-08-17T03:22:55.508Z,98608.69
2022-08-17T03:27:04.348Z,98615.81
2022-08-17T03:31:06.870Z,98623.03
2022-08-17T03:35:10.483Z,98645.00
2022-08-17T03:39:14.366Z,98651.78
2022-08-17T03:43:16.802Z,98664.31
2022-08-17T03:47:37.137Z,98643.97
2022-08-17T03:51:57.270Z,98659.53
2022-08-17T03:56:18.915Z,98657.13
2022-08-17T04:00:20.389Z,98651.94
2022-08-17T04:04:27.706Z,98650.09
2022-08-17T04:08:30.183Z,98651.78
2022-08-17T04:12:43.923Z,98631.53
2022-08-17T04:16:45.354Z,98620.84
2022-08-17T04:20:46.912Z,98621.00
2022-08-17T04:24:48.374Z,98609.47
2022-08-17T04:28:50.066Z,98625.16
2022-08-17T04:33:06.444Z,98613.59
2022-08-17T04:37:08.753Z,98627.78
2022-08-17T04:41:30.394Z,98627.13
2022-08-17T04:45:32.689Z,98622.66
2022-08-17T04:49:35.113Z,98619.69
2022-08-17T04:53:38.072Z,98628.97
2022-08-17T04:57:44.580Z,98624.78
2022-08-17T05:01:49.903Z,98628.97
2022-08-17T05:05:51.475Z,98624.41
2022-08-17T05:09:52.914Z,98631.06
2022-08-17T05:13:55.515Z,98633.81
2022-08-17T05:17:57.247Z,98643.56
2022-08-17T05:21:58.690Z,98625.56
2022-08-17T05:26:00.237Z,98613.81
2022-08-17T05:30:03.963Z,98616.59
2022-08-17T05:34:05.455Z,98641.19
2022-08-17T05:38:08.243Z,98641.72
2022-08-17T05:42:09.797Z,98645.13
2022-08-17T05:46:17.299Z,98653.44
2022-08-17T05:50:27.163Z,98665.13
2022-08-17T05:55:00.510Z,98679.66
2022-08-17T05:59:18.762Z,98664.34
2022-08-17T06:03:35.008Z,98663.19
2022-08-17T06:07:49.604Z,98663.09
2022-08-17T06:12:00.050Z,98650.28
2022-08-17T06:16:33.291Z,98649.44
2022-08-17T06:20:45.562Z,98648.97
2022-08-17T06:24:57.898Z,98652.19
2022-08-17T06:29:08.215Z,98667.84
2022-08-17T06:33:26.721Z,98663.13
2022-08-17T06:37:34.345Z,98663.81
2022-08-17T06:41:53.939Z,98665.00
2022-08-17T06:46:08.055Z,98665.63
2022-08-17T06:50:27.064Z,98684.16
2022-08-17T06:54:37.803Z,98678.63
2022-08-17T06:58:41.648Z,98681.50
2022-08-17T07:02:56.693Z,98667.84
2022-08-17T07:07:37.708Z,98664.97
2022-08-17T07:11:50.453Z,98671.75
2022-08-17T07:15:57.545Z,98671.53
2022-08-17T07:20:06.300Z,98674.06
2022-08-17T07:24:33.056Z,98681.34
2022-08-17T07:28:35.999Z,98678.03
2022-08-17T07:32:45.102Z,98671.44
2022-08-17T07:36:46.519Z,98671.13
2022-08-17T07:40:57.470Z,98687.44
2022-08-17T07:45:18.881Z,98702.44
2022-08-17T07:49:31.688Z,98699.03
2022-08-17T07:53:33.226Z,98696.47
2022-08-17T07:57:36.129Z,98708.66
2022-08-17T08:01:41.908Z,98719.44
2022-08-17T08:05:53.629Z,98733.69
2022-08-17T08:10:27.575Z,98739.97
2022-08-17T08:14:38.125Z,98758.63
2022-08-17T08:18:55.382Z,98767.84
2022-08-17T08:23:10.544Z,98779.03
2022-08-17T08:27:27.679Z,98779.28
2022-08-17T08:32:06.300Z,98778.81
2022-08-17T08:37:14.295Z,98776.41
2022-08-17T08:41:07.795Z,98780.94
2022-08-17T08:45:21.618Z,98777.88
2022-08-17T08:50:06.967Z,98791.28
2022-08-17T08:54:34.286Z,98798.66
2022-08-17T08:59:05.207Z,98802.28
2022-08-17T09:03:52.791Z,98810.28
2022-08-17T09:08:04.029Z,98795.28
2022-08-17T09:12:17.363Z,98788.53
2022-08-17T09:16:30.074Z,98791.59
2022-08-17T09:20:46.631Z,98799.97
2022-08-17T09:25:07.949Z,98784.03
2022-08-17T09:29:14.067Z,98776.84
2022-08-17T09:33:22.900Z,98766.56
2022-08-17T09:37:35.482Z,98753.19
2022-08-17T09:41:48.520Z,98732.47
2022-08-17T09:45:54.247Z,98750.78
2022-08-17T09:50:03.353Z,98770.03
2022-08-17T09:54:36.872Z,98784.00
2022-08-17T09:58:59.243Z,98773.09
2022-08-17T10:03:20.021Z,98777.97
2022-08-17T10:07:46.641Z,98795.63
2022-08-17T10:12:17.352Z,98790.50
2022-08-17T10:16:41.168Z,98795.00
2022-08-17T10:20:49.091Z,98793.38
2022-08-17T10:25:23.935Z,98801.75
2022-08-17T10:29:47.317Z,98783.16
2022-08-17T10:34:18.943Z,98778.53
2022-08-17T10:38:29.831Z,98770.88
2022-08-17T10:42:37.247Z,98791.91
2022-08-17T10:47:07.347Z,98790.66
2022-08-17T10:51:10.959Z,98786.47
2022-08-17T10:55:18.577Z,98789.78
2022-08-17T10:59:38.558Z,98790.88
2022-08-17T11:03:57.975Z,98792.00
2022-08-17T11:08:37.795Z,98789.22
2022-08-17T11:12:51.534Z,98787.22
2022-08-17T11:17:51.280Z,98785.81
2022-08-17T11:22:12.202Z,98792.28
2022-08-17T11:26:32.274Z,98782.72
2022-08-17T11:30:48.648Z,98782.69
2022-08-17T11:35:05.062Z,98776.25
2022-08-17T11:39:15.555Z,98773.06
2022-08-17T11:43:30.421Z,98765.31
2022-08-17T11:48:26.093Z,98774.31
2022-08-17T11:52:40.757Z,98772.16
2022-08-17T11:56:49.096Z,98780.16
2022-08-17T12:00:56.527Z,98771.34
2022-08-17T12:05:01.894Z,98763.81
2022-08-17T12:09:18.190Z,98771.28
2022-08-17T12:13:21.477Z,98744.06
2022-08-17T12:17:41.004Z,98751.47
2022-08-17T12:21:59.986Z,98756.72
2022-08-17T12:26:23.305Z,98761.84
2022-08-17T12:30:25.954Z,98753.38
2022-08-17T12:34:38.265Z,98747.81
2022-08-17T12:38:39.738Z,98751.31
2022-08-17T12:42:41.440Z,98750.84
2022-08-17T12:46:59.260Z,98746.81
2022-08-17T12:51:04.746Z,98735.94
2022-08-17T12:55:21.148Z,98733.56
2022-08-17T12:59:30.236Z,98720.50
2022-08-17T13:03:40.248Z,98712.00
2022-08-17T13:07:42.581Z,98722.00
2022-08-17T13:11:55.087Z,98722.81
2022-08-17T13:16:17.191Z,98710.91
2022-08-17T13:20:18.865Z,98709.03
2022-08-17T13:24:29.855Z,98709.09
2022-08-17T13:28:47.707Z,98696.22
2022-08-17T13:32:49.586Z,98698.38
2022-08-17T13:37:13.937Z,98708.78
2022-08-17T13:41:36.026Z,98708.03
2022-08-17T13:45:43.437Z,98695.91
2022-08-17T13:49:48.724Z,98688.84
2022-08-17T13:53:54.801Z,98677.13
2022-08-17T13:58:06.654Z,98681.44
2022-08-17T14:02:11.214Z,98688.38
2022-08-17T14:06:12.753Z,98683.56
2022-08-17T14:10:25.917Z,98667.72
2022-08-17T14:14:27.593Z,98663.28
2022-08-17T14:18:53.495Z,98676.06
2022-08-17T14:22:53.848Z,98666.41
2022-08-17T14:26:56.401Z,98657.69
2022-08-17T14:30:57.877Z,98659.69
2022-08-17T14:35:00.702Z,98662.63
2022-08-17T14:39:02.258Z,98656.25
2022-08-17T14:43:03.894Z,98647.72
2022-08-17T14:47:07.347Z,98648.19
2022-08-17T14:51:09.294Z,98661.88
2022-08-17T14:55:13.232Z,98654.56
2022-08-17T14:59:16.942Z,98658.78
2022-08-17T15:03:18.849Z,98661.31
2022-08-17T15:07:20.470Z,98656.47
2022-08-17T15:11:27.844Z,98646.91
2022-08-17T15:15:29.616Z,98656.41
2022-08-17T15:19:31.038Z,98660.13
2022-08-17T15:23:32.967Z,98666.88
2022-08-17T15:27:34.934Z,98668.16
2022-08-17T15:31:36.767Z,98674.31
2022-08-17T15:35:38.215Z,98664.63
2022-08-17T15:39:39.627Z,98658.47
2022-08-17T15:43:42.657Z,98652.47
2022-08-17T15:47:44.125Z,98659.34
2022-08-17T15:51:45.649Z,98641.44
2022-08-17T15:55:47.298Z,98641.72
2022-08-17T15:59:55.094Z,98640.84
2022-08-17T16:04:06.630Z,98639.47
2022-08-17T16:08:11.076Z,98644.19
2022-08-17T16:12:16.543Z,98651.84
2022-08-17T16:16:18.100Z,98663.66
2022-08-17T16:20:21.003Z,98662.03
2022-08-17T16:24:22.678Z,98662.44
2022-08-17T16:28:29.873Z,98655.19
2022-08-17T16:32:38.213Z,98656.97
2022-08-17T16:36:39.902Z,98661.09
2022-08-17T16:40:42.261Z,98657.41
2022-08-17T16:44:43.697Z,98658.44
2022-08-17T16:48:46.433Z,98659.25
2022-08-17T16:52:48.519Z,98646.19
2022-08-17T16:56:50.378Z,98650.53
2022-08-17T17:00:51.919Z,98650.28
2022-08-17T17:05:02.947Z,98651.25
2022-08-17T17:09:11.171Z,98647.06
2022-08-17T17:13:44.324Z,98644.00
2022-08-17T17:17:48.452Z,98641.41
2022-08-17T17:21:53.201Z,98627.63
2022-08-17T17:26:13.449Z,98625.34
2022-08-17T17:30:20.621Z,98617.91
2022-08-17T17:34:22.768Z,98619.28
2022-08-17T17:38:29.472Z,98621.09
2022-08-17T17:42:32.693Z,98614.41
2022-08-17T17:46:40.540Z,98608.59
2022-08-17T17:50:50.620Z,98620.66
2022-08-17T17:55:13.464Z,98626.72
2022-08-17T17:59:21.850Z,98620.19
2022-08-17T18:03:46.690Z,98629.84
2022-08-17T18:08:09.237Z,98638.47
2022-08-17T18:12:12.686Z,98643.53
2022-08-17T18:16:14.233Z,98639.34
2022-08-17T18:20:23.773Z,98649.81
2022-08-17T18:24:55.793Z,98666.03
2022-08-17T18:28:57.285Z,98668.50
2022-08-17T18:33:23.389Z,98670.88
2022-08-17T18:37:45.164Z,98674.22
2022-08-17T18:41:48.595Z,98670.88
2022-08-17T18:45:53.601Z,98690.94
2022-08-17T18:49:59.106Z,98698.78
2022-08-17T18:54:15.546Z,98712.97
2022-08-17T18:58:24.457Z,98707.06
2022-08-17T19:02:43.370Z,98718.56
2022-08-17T19:06:46.543Z,98713.34
2022-08-17T19:10:58.358Z,98726.81
2022-08-17T19:15:00.400Z,98738.41
2022-08-17T19:19:09.415Z,98731.75
2022-08-17T19:23:25.294Z,98740.19
2022-08-17T19:28:15.356Z,98742.72
2022-08-17T19:32:33.902Z,98747.66
2022-08-17T19:36:51.598Z,98758.06
2022-08-17T19:41:07.209Z,98763.84
2022-08-17T19:45:29.648Z,98760.00
2022-08-17T19:49:49.480Z,98765.06
2022-08-17T19:54:05.753Z,98768.69
2022-08-17T19:58:17.811Z,98761.53
2022-08-17T20:02:31.116Z,98765.91
2022-08-17T20:06:37.258Z,98775.94
2022-08-17T20:10:45.199Z,98777.06
2022-08-17T20:14:58.797Z,98775.84
2022-08-17T20:19:12.112Z,98777.38
2022-08-17T20:23:30.700Z,98771.53
2022-08-17T20:27:47.860Z,98761.13
2022-08-17T20:31:54.045Z,98770.47
2022-08-17T20:36:17.367Z,98776.91
2022-08-17T20:40:26.286Z,98772.94
2022-08-17T20:44:33.654Z,98778.34
2022-08-17T20:48:41.058Z,98778.75
2022-08-17T20:52:51.345Z,98781.78
2022-08-17T20:56:57.569Z,98774.28
2022-08-17T21:00:59.979Z,98782.59
2022-08-17T21:05:07.829Z,98786.75
2022-08-17T21:09:12.549Z,98798.22
2022-08-17T21:13:15.397Z,98801.47
2022-08-17T21:17:33.637Z,98802.44
2022-08-17T21:22:05.397Z,98796.19
2022-08-17T21:26:18.385Z,98807.03
2022-08-17T21:30:28.984Z,98808.50
2022-08-17T21:34:38.053Z,98819.25
2022-08-17T21:38:57.749Z,98803.50
2022-08-17T21:43:17.009Z,98795.47
2022-08-17T21:47:25.392Z,98796.50
2022-08-17T21:51:29.541Z,98801.03
2022-08-17T21:55:33.075Z,98807.50
2022-08-17T21:59:39.800Z,98806.66
2022-08-17T22:03:47.819Z,98801.28
2022-08-17T22:07:58.764Z,98795.31
2022-08-17T22:12:06.290Z,98799.81
2022-08-17T22:16:27.722Z,98792.94
2022-08-17T22:20:31.041Z,98792.06
2022-08-17T22:24:32.727Z,98796.59
2022-08-17T22:28:49.762Z,98802.22
2022-08-17T22:32:51.469Z,98818.81
2022-08-17T22:37:28.611Z,98830.31
2022-08-17T22:41:32.248Z,98839.00
2022-08-17T22:45:44.554Z,98832.00
2022-08-17T22:49:53.922Z,98846.13
2022-08-17T22:54:21.454Z,98856.19
2022-08-17T22:58:42.941Z,98858.88
2022-08-17T23:03:09.613Z,98857.84
2022-08-17T23:07:11.738Z,98873.13
2022-08-17T23:11:14.990Z,98866.16
2022-08-17T23:15:19.179Z,98875.00
2022-08-17T23:19:21.753Z,98869.09
2022-08-17T23:23:23.893Z,98868.16
2022-08-17T23:27:29.220Z,98868.25
2022-08-17T23:31:34.650Z,98856.06
2022-08-17T23:35:40.052Z,98855.41
2022-08-17T23:39:44.983Z,98845.47
2022-08-17T23:43:49.173Z,98836.81
2022-08-17T23:47:50.779Z,98830.06
2022-08-17T23:51:55.846Z,98840.66
2022-08-17T23:56:09.543Z,98845.25
